Time;durP1;ratioP1;P1;durP2;ratioP2;P2;SDS_P1;SDS_P2;PMS_P1;PMS_P2;Temp;Humidity;BMP_temperature;BMP_pressure;BME280_temperature;BME280_humidity;BME280_pressure;Samples;Min_cycle;Max_cycle;Signal;HPM_P1;HPM_P2
2022/12/15 00:38:44;;;;;;;2.55;2.10;;;;;;;;;;5093972;28;20533;-69
2022/12/15 00:41:15;;;;;;;2.97;2.40;;;;;;;;;;5094321;28;20032;-69
2022/12/15 00:43:41;;;;;;;3.15;2.10;;;;;;;;;;5094687;28;20032;-70
2022/12/15 00:48:51;;;;;;;5.03;2.15;;;;;;;;;;5094544;28;20035;-70
2022/12/15 00:51:18;;;;;;;3.00;1.80;;;;;;;;;;5094789;28;20123;-70
2022/12/15 01:21:12;;;;;;;5.13;2.22;;;;;;;;;;5097591;28;20571;-69
2022/12/15 01:23:39;;;;;;;3.53;2.35;;;;;;;;;;5097589;28;20074;-69
2022/12/15 01:26:06;;;;;;;2.97;2.10;;;;;;;;;;5097477;28;20093;-69
2022/12/15 01:28:32;;;;;;;2.17;1.98;;;;;;;;;;5097668;28;20188;-70
2022/12/15 01:30:58;;;;;;;2.70;2.30;;;;;;;;;;5097557;28;20437;-70
2022/12/15 01:33:24;;;;;;;4.65;2.47;;;;;;;;;;5097870;28;20040;-70
2022/12/15 01:35:57;;;;;;;4.65;3.55;;;;;;;;;;5097798;28;20040;-69
2022/12/15 01:38:24;;;;;;;3.50;2.22;;;;;;;;;;5098191;28;20110;-69
2022/12/15 01:40:51;;;;;;;4.18;3.10;;;;;;;;;;5097386;28;20483;-70
2022/12/15 01:43:21;;;;;;;3.03;2.72;;;;;;;;;;5098031;28;20036;-69
2022/12/15 01:45:47;;;;;;;2.80;2.30;;;;;;;;;;5097270;28;20052;-70
2022/12/15 01:48:17;;;;;;;3.67;2.20;;;;;;;;;;5097825;28;20270;-69
2022/12/15 01:51:03;;;;;;;2.40;2.20;;;;;;;;;;5097291;28;20043;-70
2022/12/15 01:53:33;;;;;;;3.20;2.10;;;;;;;;;;5097549;28;20059;-69
2022/12/15 01:55:59;;;;;;;3.55;2.50;;;;;;;;;;5097114;28;20043;-70
2022/12/15 01:58:26;;;;;;;2.38;1.90;;;;;;;;;;5097655;28;20032;-70
2022/12/15 02:00:52;;;;;;;4.20;2.20;;;;;;;;;;5096993;28;20028;-70
2022/12/15 02:03:18;;;;;;;3.10;1.90;;;;;;;;;;5097594;28;20063;-69
2022/12/15 02:05:45;;;;;;;2.33;2.13;;;;;;;;;;5097195;28;20043;-69
2022/12/15 02:08:11;;;;;;;2.55;2.35;;;;;;;;;;5097033;28;20044;-70
2022/12/15 02:10:58;;;;;;;4.63;2.33;;;;;;;;;;5096885;28;20119;-70
2022/12/15 02:13:28;;;;;;;5.18;2.50;;;;;;;;;;5086286;28;20048;-69
2022/12/15 02:16:21;;;;;;;4.25;2.60;;;;;;;;;;5096755;28;20044;-69
2022/12/15 02:18:47;;;;;;;4.45;2.60;;;;;;;;;;5094976;28;20046;-69
2022/12/15 02:21:18;;;;;;;2.80;2.33;;;;;;;;;;5096701;28;20035;-70
2022/12/15 02:23:44;;;;;;;;;;;;;;;;;;5097342;28;20044;-70
2022/12/15 02:26:19;;;;;;;2.85;2.20;;;;;;;;;;5096377;28;19912;-70
2022/12/15 02:29:04;;;;;;;3.15;2.28;;;;;;;;;;5096539;28;20036;-70
2022/12/15 02:31:49;;;;;;;3.25;2.20;;;;;;;;;;5097376;28;20039;-70
2022/12/15 02:34:25;;;;;;;4.00;3.00;;;;;;;;;;5096736;28;20032;-70
2022/12/15 02:36:54;;;;;;;2.97;2.50;;;;;;;;;;5096514;28;20557;-70
2022/12/15 02:39:22;;;;;;;2.63;2.42;;;;;;;;;;5096815;28;20040;-70
2022/12/15 02:41:51;;;;;;;6.45;3.10;;;;;;;;;;5096884;28;20032;-70
2022/12/15 02:44:38;;;;;;;3.67;2.67;;;;;;;;;;5096133;28;20031;-70
2022/12/15 02:47:22;;;;;;;2.47;2.28;;;;;;;;;;5096672;28;20042;-70
2022/12/15 02:50:07;;;;;;;3.35;2.38;;;;;;;;;;5096071;28;20478;-70
2022/12/15 02:52:45;;;;;;;3.35;3.00;;;;;;;;;;5095963;28;20032;-70
2022/12/15 02:55:18;;;;;;;2.72;2.50;;;;;;;;;;5096109;28;20106;-70
2022/12/15 02:57:53;;;;;;;3.03;2.75;;;;;;;;;;5096275;28;20035;-70
2022/12/15 03:00:19;;;;;;;3.10;2.50;;;;;;;;;;5096152;28;20040;-70
2022/12/15 03:02:50;;;;;;;4.55;2.78;;;;;;;;;;5095876;28;20499;-69
2022/12/15 03:05:17;;;;;;;3.33;3.03;;;;;;;;;;5095730;28;20036;-70
2022/12/15 03:07:43;;;;;;;3.70;2.80;;;;;;;;;;5096123;28;20028;-70
2022/12/15 03:10:11;;;;;;;4.88;3.00;;;;;;;;;;5095970;28;20111;-69
2022/12/15 03:12:37;;;;;;;4.20;3.03;;;;;;;;;;5096290;28;20039;-69
2022/12/15 03:15:04;;;;;;;3.22;2.58;;;;;;;;;;5096023;28;20032;-69
2022/12/15 03:17:30;;;;;;;4.20;3.20;;;;;;;;;;5095560;28;20043;-69
2022/12/15 03:19:56;;;;;;;3.05;2.75;;;;;;;;;;5095503;28;20114;-69
2022/12/15 03:22:22;;;;;;;2.85;2.65;;;;;;;;;;5095726;28;20036;-69
2022/12/15 03:24:48;;;;;;;3.30;2.47;;;;;;;;;;5095374;28;20523;-69
2022/12/15 03:27:15;;;;;;;3.85;3.20;;;;;;;;;;5095927;28;20054;-70
2022/12/15 03:29:41;;;;;;;3.50;3.10;;;;;;;;;;5095608;28;20071;-70
2022/12/15 03:32:07;;;;;;;3.53;2.65;;;;;;;;;;5095207;28;20040;-70
2022/12/15 03:34:33;;;;;;;3.85;3.35;;;;;;;;;;5095877;28;20071;-70
2022/12/15 03:36:59;;;;;;;2.67;2.33;;;;;;;;;;5095027;28;20109;-70
2022/12/15 03:39:26;;;;;;;2.28;2.00;;;;;;;;;;5095582;28;20111;-70
2022/12/15 03:41:52;;;;;;;2.00;1.90;;;;;;;;;;5095704;28;20028;-70
2022/12/15 03:44:18;;;;;;;2.30;2.10;;;;;;;;;;5095479;28;20036;-70
2022/12/15 03:46:44;;;;;;;1.60;1.50;;;;;;;;;;5094907;28;20040;-70
2022/12/15 03:49:10;;;;;;;2.78;1.85;;;;;;;;;;5094963;28;20035;-70
2022/12/15 03:51:36;;;;;;;3.70;1.55;;;;;;;;;;5095068;28;20387;-70
2022/12/15 03:54:02;;;;;;;3.78;1.20;;;;;;;;;;5094875;28;20482;-70
2022/12/15 03:56:29;;;;;;;1.50;1.33;;;;;;;;;;5095143;28;20115;-70
2022/12/15 03:58:55;;;;;;;1.45;1.10;;;;;;;;;;5094839;28;20551;-70
2022/12/15 04:01:31;;;;;;;1.17;1.08;;;;;;;;;;5094980;28;20463;-70
2022/12/15 04:03:57;;;;;;;0.80;0.80;;;;;;;;;;5095554;28;20105;-70
2022/12/15 04:06:24;;;;;;;2.00;0.90;;;;;;;;;;5094933;28;20043;-70
2022/12/15 04:08:50;;;;;;;1.60;0.82;;;;;;;;;;5094787;28;20032;-70
2022/12/15 04:11:17;;;;;;;0.80;0.80;;;;;;;;;;5095487;28;20509;-69
2022/12/15 04:13:43;;;;;;;1.27;0.70;;;;;;;;;;5095097;28;20035;-70
2022/12/15 04:16:09;;;;;;;0.80;0.80;;;;;;;;;;5094911;28;20113;-69
2022/12/15 04:18:35;;;;;;;0.88;0.88;;;;;;;;;;5095434;28;20035;-70
2022/12/15 04:21:02;;;;;;;1.20;0.80;;;;;;;;;;5094737;28;20028;-70
2022/12/15 04:23:28;;;;;;;0.68;0.68;;;;;;;;;;5094858;28;20063;-70
2022/12/15 05:31:57;;;;;;;0.95;0.50;;;;;;;;;;5108015;28;20046;-69
2022/12/15 05:34:28;;;;;;;1.33;0.93;;;;;;;;;;5097928;28;20062;-68
2022/12/15 05:36:55;;;;;;;2.75;0.80;;;;;;;;;;5098059;28;20035;-69
2022/12/15 05:39:21;;;;;;;4.50;0.90;;;;;;;;;;5098034;28;20040;-69
2022/12/15 05:41:47;;;;;;;4.03;0.80;;;;;;;;;;5098226;28;20054;-69
2022/12/15 05:44:13;;;;;;;1.63;0.75;;;;;;;;;;5098378;28;20032;-70
2022/12/15 05:46:40;;;;;;;0.82;0.65;;;;;;;;;;5101829;28;20067;-69
2022/12/15 05:49:07;;;;;;;2.15;0.50;;;;;;;;;;5108584;28;20036;-69
2022/12/15 05:51:33;;;;;;;1.70;0.70;;;;;;;;;;5097808;28;20064;-69
2022/12/15 05:54:00;;;;;;;1.45;0.50;;;;;;;;;;5108583;28;20042;-69
2022/12/15 05:56:27;;;;;;;0.80;0.80;;;;;;;;;;5116209;28;20042;-73
2022/12/15 05:58:53;;;;;;;0.40;0.40;;;;;;;;;;5077291;28;20029;-70
2022/12/15 06:01:19;;;;;;;1.10;0.70;;;;;;;;;;5077072;28;20047;-70
2022/12/15 06:03:45;;;;;;;0.80;0.80;;;;;;;;;;5077235;28;20040;-70
2022/12/15 06:06:12;;;;;;;1.13;0.70;;;;;;;;;;5077167;28;20056;-70
2022/12/15 06:08:40;;;;;;;0.77;0.77;;;;;;;;;;5077286;28;20479;-70
2022/12/15 06:11:06;;;;;;;1.00;1.00;;;;;;;;;;5076891;28;20040;-70
2022/12/15 06:13:33;;;;;;;3.08;0.88;;;;;;;;;;5077759;28;20036;-70
2022/12/15 06:16:04;;;;;;;0.90;0.63;;;;;;;;;;5077131;28;20123;-70
2022/12/15 06:18:31;;;;;;;1.23;0.70;;;;;;;;;;5076836;28;20032;-70
2022/12/15 06:21:02;;;;;;;0.80;0.80;;;;;;;;;;5076828;28;20197;-70
2022/12/15 06:23:28;;;;;;;1.33;0.55;;;;;;;;;;5076790;28;20051;-70
2022/12/15 06:25:55;;;;;;;0.77;0.70;;;;;;;;;;5076413;28;20131;-69
2022/12/15 06:28:24;;;;;;;2.60;0.90;;;;;;;;;;5076926;28;20043;-70
2022/12/15 06:30:52;;;;;;;0.60;0.60;;;;;;;;;;5076599;28;20038;-70
2022/12/15 06:33:18;;;;;;;1.45;0.63;;;;;;;;;;5077077;28;20036;-70
2022/12/15 06:35:44;;;;;;;2.05;1.95;;;;;;;;;;5076178;28;20032;-70
2022/12/15 06:38:10;;;;;;;2.00;1.90;;;;;;;;;;5076207;28;20060;-70
2022/12/15 06:40:37;;;;;;;1.95;1.05;;;;;;;;;;5076975;28;20495;-70
2022/12/15 06:43:03;;;;;;;1.27;1.00;;;;;;;;;;5076759;28;20063;-70
2022/12/15 06:45:29;;;;;;;4.35;1.95;;;;;;;;;;5076242;28;20119;-70
2022/12/15 06:47:56;;;;;;;2.38;1.67;;;;;;;;;;5075874;28;20032;-70
2022/12/15 06:50:22;;;;;;;1.20;1.17;;;;;;;;;;5076019;28;20044;-70
2022/12/15 06:52:48;;;;;;;2.60;2.40;;;;;;;;;;5090412;28;20036;-70
2022/12/15 06:55:14;;;;;;;1.35;1.00;;;;;;;;;;5092688;28;20120;-70
2022/12/15 06:57:40;;;;;;;2.30;2.20;;;;;;;;;;5095529;28;20055;-70
2022/12/15 07:00:07;;;;;;;2.45;0.90;;;;;;;;;;5095498;28;20032;-70
2022/12/15 07:02:33;;;;;;;1.17;0.70;;;;;;;;;;5095415;28;20498;-70
2022/12/15 07:04:59;;;;;;;1.27;0.93;;;;;;;;;;5094402;28;20067;-70
2022/12/15 07:07:26;;;;;;;1.35;0.90;;;;;;;;;;5094314;28;20364;-70
2022/12/15 07:09:53;;;;;;;2.58;1.20;;;;;;;;;;5093990;28;20040;-70
2022/12/15 07:12:19;;;;;;;1.17;1.10;;;;;;;;;;5094958;28;20039;-70
2022/12/15 07:14:45;;;;;;;0.80;0.80;;;;;;;;;;5092828;28;20035;-71
2022/12/15 07:17:11;;;;;;;2.63;0.70;;;;;;;;;;5095886;28;20039;-69
2022/12/15 07:19:37;;;;;;;1.05;0.60;;;;;;;;;;5095779;28;20034;-69
2022/12/15 07:22:03;;;;;;;0.60;0.40;;;;;;;;;;5094481;28;20437;-70
2022/12/15 07:24:29;;;;;;;1.08;0.70;;;;;;;;;;5095712;28;20036;-69
2022/12/15 07:26:56;;;;;;;3.05;0.77;;;;;;;;;;5096875;28;20075;-70
2022/12/15 07:29:22;;;;;;;3.83;0.70;;;;;;;;;;5095657;28;20051;-70
2022/12/15 07:31:48;;;;;;;0.60;0.52;;;;;;;;;;5096511;28;20518;-70
2022/12/15 07:34:14;;;;;;;0.65;0.60;;;;;;;;;;5095783;28;20118;-70
2022/12/15 07:36:40;;;;;;;4.57;0.70;;;;;;;;;;5095393;28;20116;-70
2022/12/15 07:39:06;;;;;;;7.82;5.22;;;;;;;;;;5095465;28;20036;-70
2022/12/15 07:41:34;;;;;;;1.92;1.20;;;;;;;;;;5096371;28;20482;-70
2022/12/15 07:44:01;;;;;;;2.85;1.00;;;;;;;;;;5095326;28;20031;-70
2022/12/15 07:46:27;;;;;;;0.60;0.60;;;;;;;;;;5095511;28;20093;-70
2022/12/15 07:48:54;;;;;;;2.28;0.70;;;;;;;;;;5095218;28;20032;-70
2022/12/15 07:51:20;;;;;;;1.10;0.70;;;;;;;;;;5096134;28;20036;-70
2022/12/15 07:53:48;;;;;;;1.02;1.00;;;;;;;;;;5095964;28;20066;-70
2022/12/15 07:56:14;;;;;;;1.58;0.80;;;;;;;;;;5095426;28;20035;-70
2022/12/15 07:58:40;;;;;;;2.20;0.57;;;;;;;;;;5095523;28;20036;-70
2022/12/15 08:01:08;;;;;;;2.70;0.60;;;;;;;;;;5095393;28;20054;-70
2022/12/15 08:03:34;;;;;;;0.80;0.60;;;;;;;;;;5095442;28;20036;-70
2022/12/15 08:06:04;;;;;;;0.60;0.60;;;;;;;;;;5095003;28;20044;-70
2022/12/15 08:08:30;;;;;;;0.75;0.68;;;;;;;;;;5095168;28;20032;-70
2022/12/15 08:10:57;;;;;;;0.57;0.57;;;;;;;;;;5095080;28;20123;-70
2022/12/15 08:13:23;;;;;;;0.60;0.60;;;;;;;;;;5094975;28;20035;-70
2022/12/15 08:15:53;;;;;;;0.88;0.60;;;;;;;;;;5095152;28;20481;-70
2022/12/15 08:18:20;;;;;;;0.47;0.47;;;;;;;;;;5094583;28;20047;-70
2022/12/15 08:20:46;;;;;;;2.97;0.50;;;;;;;;;;5095123;28;20036;-70
2022/12/15 08:23:12;;;;;;;1.00;0.60;;;;;;;;;;5095301;28;20058;-70
2022/12/15 08:25:38;;;;;;;0.40;0.40;;;;;;;;;;5094640;28;20040;-70
2022/12/15 08:28:05;;;;;;;0.82;0.82;;;;;;;;;;5094379;28;20052;-70
2022/12/15 08:30:33;;;;;;;0.70;0.65;;;;;;;;;;5094723;28;20039;-70
2022/12/15 08:32:59;;;;;;;0.70;0.70;;;;;;;;;;5094702;28;20495;-70
2022/12/15 08:35:25;;;;;;;0.73;0.60;;;;;;;;;;5094465;28;20359;-70
2022/12/15 08:37:51;;;;;;;1.20;0.57;;;;;;;;;;5094508;28;20051;-70
2022/12/15 08:40:18;;;;;;;0.55;0.50;;;;;;;;;;5094660;28;20036;-70
2022/12/15 08:42:44;;;;;;;1.73;0.50;;;;;;;;;;5094073;28;20367;-70
2022/12/15 08:45:13;;;;;;;0.65;0.65;;;;;;;;;;5094610;28;20028;-70
2022/12/15 08:47:40;;;;;;;1.33;0.57;;;;;;;;;;5094239;28;20049;-70
2022/12/15 08:50:07;;;;;;;0.60;0.60;;;;;;;;;;5094335;28;20032;-70
2022/12/15 08:52:33;;;;;;;1.27;0.70;;;;;;;;;;5094371;28;20062;-70
2022/12/15 08:54:59;;;;;;;2.40;0.85;;;;;;;;;;5094516;28;20086;-70
2022/12/15 08:57:26;;;;;;;0.82;0.70;;;;;;;;;;5094530;28;20043;-70
2022/12/15 08:59:52;;;;;;;0.82;0.82;;;;;;;;;;5094128;28;20042;-70
2022/12/15 09:02:18;;;;;;;1.05;0.95;;;;;;;;;;5094460;28;20089;-70
2022/12/15 09:04:44;;;;;;;0.80;0.70;;;;;;;;;;5094416;28;20031;-70
2022/12/15 09:07:11;;;;;;;1.60;1.40;;;;;;;;;;5094601;28;20494;-69
2022/12/15 09:09:37;;;;;;;0.80;0.80;;;;;;;;;;5094340;28;20118;-70
2022/12/15 09:12:04;;;;;;;0.60;0.60;;;;;;;;;;5094895;28;20093;-70
2022/12/15 09:14:30;;;;;;;1.63;1.52;;;;;;;;;;5094046;28;20104;-70
2022/12/15 09:16:56;;;;;;;1.33;1.23;;;;;;;;;;5093067;28;20067;-70
2022/12/15 09:19:22;;;;;;;0.80;0.80;;;;;;;;;;5094285;28;20036;-70
2022/12/15 09:21:48;;;;;;;1.27;1.00;;;;;;;;;;5094381;28;20452;-70
2022/12/15 09:24:15;;;;;;;0.80;0.80;;;;;;;;;;5094164;28;20409;-70
2022/12/15 09:26:41;;;;;;;1.20;1.10;;;;;;;;;;5093906;28;20052;-69
2022/12/15 09:29:10;;;;;;;2.20;0.80;;;;;;;;;;5095163;28;20059;-70
2022/12/15 09:31:37;;;;;;;1.33;1.10;;;;;;;;;;5098573;28;20121;-70
2022/12/15 09:34:03;;;;;;;2.42;2.22;;;;;;;;;;5098416;28;20032;-70
2022/12/15 09:36:31;;;;;;;1.10;1.00;;;;;;;;;;5097877;28;20043;-70
2022/12/15 09:38:58;;;;;;;0.50;0.50;;;;;;;;;;5097625;28;20032;-70
2022/12/15 09:41:26;;;;;;;1.55;1.42;;;;;;;;;;5097759;28;20040;-70
2022/12/15 09:44:01;;;;;;;1.35;1.25;;;;;;;;;;5097945;28;20031;-70
2022/12/15 09:46:27;;;;;;;1.50;1.40;;;;;;;;;;5097340;28;20040;-70
2022/12/15 09:48:55;;;;;;;0.70;0.70;;;;;;;;;;5098126;28;20082;-70
2022/12/15 09:51:29;;;;;;;1.42;1.30;;;;;;;;;;5097633;28;20047;-70
2022/12/15 09:53:55;;;;;;;0.85;0.50;;;;;;;;;;5097428;28;20089;-70
2022/12/15 09:56:25;;;;;;;0.85;0.60;;;;;;;;;;5097224;28;20048;-70
2022/12/15 09:58:51;;;;;;;1.40;0.50;;;;;;;;;;5097175;28;20123;-70
2022/12/15 10:01:30;;;;;;;0.40;0.40;;;;;;;;;;5097690;28;20046;-70
2022/12/15 10:03:56;;;;;;;0.68;0.43;;;;;;;;;;5097349;28;20063;-70
2022/12/15 10:06:27;;;;;;;0.75;0.50;;;;;;;;;;5097498;28;20044;-70
2022/12/15 10:08:57;;;;;;;1.63;0.52;;;;;;;;;;5097209;28;20035;-70
2022/12/15 10:11:40;;;;;;;1.80;1.67;;;;;;;;;;5097267;28;20043;-70
2022/12/15 10:14:12;;;;;;;0.47;0.47;;;;;;;;;;5097185;28;20295;-70
2022/12/15 10:16:44;;;;;;;0.40;0.40;;;;;;;;;;5097412;28;20036;-70
2022/12/15 10:19:18;;;;;;;2.03;1.85;;;;;;;;;;5096760;28;20036;-70
2022/12/15 10:21:44;;;;;;;3.30;2.30;;;;;;;;;;5097144;28;20470;-70
2022/12/15 10:24:13;;;;;;;1.55;1.13;;;;;;;;;;5096940;28;20042;-70
2022/12/15 10:26:40;;;;;;;0.73;0.73;;;;;;;;;;5096533;28;20071;-70
2022/12/15 10:29:31;;;;;;;0.82;0.82;;;;;;;;;;5096861;28;20048;-70
2022/12/15 10:32:04;;;;;;;1.60;1.50;;;;;;;;;;5096886;28;20046;-70
2022/12/15 10:34:32;;;;;;;1.10;1.00;;;;;;;;;;5097114;28;20055;-70
2022/12/15 10:36:59;;;;;;;1.38;1.00;;;;;;;;;;5096549;28;20486;-70
2022/12/15 10:39:37;;;;;;;0.98;0.70;;;;;;;;;;5096463;28;20035;-70
2022/12/15 10:42:11;;;;;;;0.80;0.80;;;;;;;;;;5096981;28;20044;-70
2022/12/15 10:44:37;;;;;;;0.88;0.73;;;;;;;;;;5096264;28;20035;-70
2022/12/15 10:47:11;;;;;;;1.65;0.70;;;;;;;;;;5096150;28;20054;-70
2022/12/15 10:49:37;;;;;;;2.53;2.30;;;;;;;;;;5096147;28;20514;-70
2022/12/15 10:52:03;;;;;;;68.40;26.65;;;;;;;;;;5096782;28;20043;-70
2022/12/15 10:54:34;;;;;;;38.47;16.13;;;;;;;;;;5096082;28;20378;-70
2022/12/15 10:57:02;;;;;;;13.63;5.88;;;;;;;;;;5096660;28;20062;-70
2022/12/15 10:59:30;;;;;;;3.40;2.30;;;;;;;;;;5096661;28;20043;-70
2022/12/15 11:02:16;;;;;;;5.72;3.38;;;;;;;;;;5097055;28;20066;-70
2022/12/15 11:04:53;;;;;;;5.07;4.50;;;;;;;;;;5095795;28;20071;-70
2022/12/15 11:07:20;;;;;;;5.53;3.80;;;;;;;;;;5096310;28;20474;-70
2022/12/15 11:09:48;;;;;;;10.07;5.90;;;;;;;;;;5096098;28;20035;-70
2022/12/15 11:15:23;;;;;;;9.55;7.68;;;;;;;;;;5095438;28;20390;-70
2022/12/15 11:17:58;;;;;;;45.50;29.52;;;;;;;;;;5095918;28;20044;-70
2022/12/15 11:20:28;;;;;;;57.63;45.85;;;;;;;;;;5095933;28;20067;-70
2022/12/15 11:23:13;;;;;;;90.80;63.05;;;;;;;;;;5095267;28;20370;-70
2022/12/15 11:25:46;;;;;;;34.08;29.55;;;;;;;;;;5095289;28;20048;-70
2022/12/15 11:28:19;;;;;;;33.83;25.45;;;;;;;;;;5096035;28;20075;-70
2022/12/15 11:30:47;;;;;;;11.88;8.75;;;;;;;;;;5094092;28;20035;-70
2022/12/15 11:33:14;;;;;;;10.75;7.40;;;;;;;;;;5096226;28;20036;-70
2022/12/15 11:35:49;;;;;;;3.80;2.92;;;;;;;;;;5095415;28;20073;-70
2022/12/15 11:38:34;;;;;;;5.63;3.58;;;;;;;;;;5095549;28;20047;-70
2022/12/15 11:41:26;;;;;;;6.53;5.35;;;;;;;;;;5095586;28;20028;-70
2022/12/15 11:43:52;;;;;;;12.07;9.27;;;;;;;;;;5093266;28;20107;-70
2022/12/15 11:46:18;;;;;;;7.10;5.72;;;;;;;;;;5095332;28;20092;-70
2022/12/15 11:49:03;;;;;;;10.73;8.60;;;;;;;;;;5095357;28;20044;-70
2022/12/15 11:51:41;;;;;;;3.75;2.80;;;;;;;;;;5094908;28;20036;-70
2022/12/15 11:54:19;;;;;;;20.10;18.25;;;;;;;;;;5095450;28;20059;-69
2022/12/15 11:56:47;;;;;;;15.30;13.90;;;;;;;;;;5094903;28;20064;-70
2022/12/15 11:59:28;;;;;;;13.23;12.13;;;;;;;;;;5094822;28;20080;-70
2022/12/15 12:02:13;;;;;;;6.05;5.57;;;;;;;;;;5095453;28;20111;-70
2022/12/15 12:04:58;;;;;;;3.75;3.38;;;;;;;;;;5095268;28;20081;-70
2022/12/15 12:07:29;;;;;;;3.88;3.58;;;;;;;;;;5094841;28;20075;-70
2022/12/15 12:09:55;;;;;;;4.75;3.10;;;;;;;;;;5094415;28;20085;-70
2022/12/15 12:12:32;;;;;;;2.10;1.20;;;;;;;;;;5094767;28;20054;-69
2022/12/15 12:15:06;;;;;;;2.53;2.03;;;;;;;;;;5095159;28;20039;-70
2022/12/15 12:17:35;;;;;;;3.28;2.63;;;;;;;;;;5095535;28;20048;-70
2022/12/15 12:20:04;;;;;;;8.02;7.32;;;;;;;;;;5094842;28;20092;-70
2022/12/15 12:22:36;;;;;;;4.93;4.53;;;;;;;;;;5094372;28;20042;-70
2022/12/15 12:25:04;;;;;;;3.30;3.00;;;;;;;;;;5094845;28;20052;-70
2022/12/15 12:27:59;;;;;;;11.93;10.95;;;;;;;;;;5095067;28;20036;-70
2022/12/15 12:30:28;;;;;;;3.78;3.47;;;;;;;;;;5085470;28;20044;-70
2022/12/15 12:33:08;;;;;;;2.53;2.20;;;;;;;;;;5095056;28;20039;-70
2022/12/15 12:35:43;;;;;;;4.10;1.40;;;;;;;;;;5094741;28;20048;-70
2022/12/15 12:38:10;;;;;;;1.30;1.10;;;;;;;;;;5094255;28;20513;-70
2022/12/15 12:40:37;;;;;;;1.90;1.42;;;;;;;;;;5094569;28;20470;-70
2022/12/15 12:43:03;;;;;;;3.67;2.42;;;;;;;;;;5094898;28;20054;-70
2022/12/15 12:45:50;;;;;;;3.90;2.78;;;;;;;;;;5094337;28;20097;-70
2022/12/15 12:48:36;;;;;;;5.13;3.85;;;;;;;;;;5094734;28;20036;-70
2022/12/15 12:51:12;;;;;;;4.88;3.42;;;;;;;;;;5094095;28;20035;-70
2022/12/15 12:53:38;;;;;;;4.53;2.47;;;;;;;;;;5094552;28;20475;-70
2022/12/15 12:56:04;;;;;;;6.85;5.22;;;;;;;;;;5094478;28;20043;-70
2022/12/15 12:58:36;;;;;;;7.00;5.90;;;;;;;;;;5094903;28;20032;-70
2022/12/15 13:01:05;;;;;;;2.30;1.80;;;;;;;;;;5094461;28;20044;-70
2022/12/15 13:03:31;;;;;;;2.20;2.00;;;;;;;;;;5097125;28;20200;-70
2022/12/15 13:05:57;;;;;;;3.67;2.65;;;;;;;;;;5098390;28;20088;-70
2022/12/15 13:08:28;;;;;;;12.77;9.63;;;;;;;;;;5098053;28;20040;-70
2022/12/15 13:10:55;;;;;;;5.85;5.28;;;;;;;;;;5098317;28;20039;-70
2022/12/15 13:13:27;;;;;;;4.57;4.18;;;;;;;;;;5097730;28;20060;-70
2022/12/15 13:16:08;;;;;;;6.50;5.45;;;;;;;;;;5098267;28;20040;-70
2022/12/15 13:19:13;;;;;;;5.30;4.80;;;;;;;;;;5097924;28;20344;-70
2022/12/15 13:21:45;;;;;;;4.70;4.03;;;;;;;;;;5055438;28;20063;-70
2022/12/15 13:24:30;;;;;;;7.50;3.75;;;;;;;;;;5055260;28;20039;-70
2022/12/15 13:27:08;;;;;;;6.00;4.25;;;;;;;;;;5082225;28;20044;-70
2022/12/15 13:29:35;;;;;;;3.50;3.20;;;;;;;;;;5098043;28;20035;-70
2022/12/15 13:32:02;;;;;;;3.97;2.42;;;;;;;;;;5098054;28;20044;-70
2022/12/15 13:34:35;;;;;;;4.05;2.95;;;;;;;;;;5097848;28;20530;-70
2022/12/15 13:37:01;;;;;;;3.47;2.88;;;;;;;;;;5097446;28;20036;-70
2022/12/15 13:39:27;;;;;;;2.83;2.47;;;;;;;;;;5098269;28;20059;-70
2022/12/15 13:41:53;;;;;;;4.55;2.72;;;;;;;;;;5097868;28;20040;-70
2022/12/15 13:44:35;;;;;;;4.57;2.85;;;;;;;;;;5097770;28;20101;-70
2022/12/15 13:47:20;;;;;;;2.90;2.60;;;;;;;;;;5097654;28;20100;-70
2022/12/15 13:49:48;;;;;;;3.33;2.58;;;;;;;;;;5097060;28;20085;-70
2022/12/15 13:52:20;;;;;;;4.13;2.35;;;;;;;;;;5098065;28;20044;-70
2022/12/15 13:54:53;;;;;;;3.83;2.45;;;;;;;;;;5097656;28;20040;-70
2022/12/15 13:57:20;;;;;;;3.70;3.20;;;;;;;;;;5100935;28;20174;-71
2022/12/15 13:59:49;;;;;;;3.60;3.30;;;;;;;;;;5103928;28;20036;-71
2022/12/15 14:02:27;;;;;;;4.35;3.63;;;;;;;;;;5103243;28;20036;-69
2022/12/15 14:05:04;;;;;;;4.32;3.20;;;;;;;;;;5080879;28;20036;-70
2022/12/15 14:07:30;;;;;;;4.13;3.65;;;;;;;;;;5084003;28;20082;-70
2022/12/15 14:09:57;;;;;;;3.75;2.88;;;;;;;;;;5100446;28;20040;-71
2022/12/15 14:12:23;;;;;;;3.17;2.80;;;;;;;;;;5089260;28;20043;-69
2022/12/15 14:14:51;;;;;;;2.50;2.30;;;;;;;;;;5079122;28;20035;-70
2022/12/15 14:17:18;;;;;;;3.53;2.88;;;;;;;;;;5095558;28;20097;-69
2022/12/15 14:19:46;;;;;;;2.33;2.13;;;;;;;;;;5094975;28;20125;-69
2022/12/15 14:22:20;;;;;;;3.30;1.70;;;;;;;;;;5094861;28;20047;-69
2022/12/15 14:24:47;;;;;;;4.88;2.13;;;;;;;;;;5095556;28;20111;-69
2022/12/15 14:27:23;;;;;;;2.90;2.22;;;;;;;;;;5095064;28;20066;-69
2022/12/15 14:29:50;;;;;;;2.35;2.00;;;;;;;;;;5095462;28;20032;-69
2022/12/15 14:32:16;;;;;;;4.65;4.07;;;;;;;;;;5102059;28;20062;-69
2022/12/15 14:34:43;;;;;;;3.47;2.03;;;;;;;;;;5109352;28;20045;-69
2022/12/15 14:37:16;;;;;;;1.63;1.52;;;;;;;;;;5075341;28;20037;-69
2022/12/15 14:39:44;;;;;;;2.03;1.70;;;;;;;;;;5075760;28;20032;-69
2022/12/15 14:42:19;;;;;;;2.13;1.92;;;;;;;;;;5078086;28;20044;-69
2022/12/15 14:44:46;;;;;;;3.22;2.30;;;;;;;;;;5112973;28;20035;-70
2022/12/15 14:47:21;;;;;;;3.05;1.98;;;;;;;;;;5107310;28;20043;-70
2022/12/15 14:49:47;;;;;;;3.65;3.25;;;;;;;;;;5102082;28;20039;-70
2022/12/15 14:52:26;;;;;;;6.88;3.15;;;;;;;;;;5089640;28;20043;-70
2022/12/15 14:55:00;;;;;;;2.63;1.73;;;;;;;;;;5091044;28;20051;-70
2022/12/15 14:57:28;;;;;;;3.00;1.40;;;;;;;;;;5095036;28;20039;-69
2022/12/15 14:59:54;;;;;;;3.67;2.20;;;;;;;;;;5088504;28;20118;-69
2022/12/15 15:02:25;;;;;;;1.75;1.65;;;;;;;;;;5093993;28;20039;-70
2022/12/15 15:04:59;;;;;;;2.08;1.80;;;;;;;;;;5094869;28;20111;-69
2022/12/15 15:07:26;;;;;;;3.00;1.25;;;;;;;;;;5094405;28;20487;-70
2022/12/15 15:09:53;;;;;;;1.45;1.20;;;;;;;;;;5095492;28;20157;-70
2022/12/15 15:12:20;;;;;;;1.98;1.27;;;;;;;;;;5093192;28;20031;-70
2022/12/15 15:15:00;;;;;;;2.97;1.50;;;;;;;;;;5074306;28;20094;-70
2022/12/15 15:17:35;;;;;;;1.85;1.73;;;;;;;;;;5074464;28;20043;-69
2022/12/15 15:20:02;;;;;;;2.70;2.00;;;;;;;;;;5074509;28;20097;-70
2022/12/15 15:22:39;;;;;;;4.95;2.50;;;;;;;;;;5073917;28;20112;-71
2022/12/15 15:25:21;;;;;;;3.90;1.80;;;;;;;;;;5073893;28;20445;-70
2022/12/15 15:27:49;;;;;;;4.38;1.52;;;;;;;;;;5072452;28;20368;-70
2022/12/15 15:30:17;;;;;;;2.10;1.65;;;;;;;;;;5074036;28;20089;-70
2022/12/15 15:33:11;;;;;;;3.80;2.20;;;;;;;;;;5087389;28;20032;-70
2022/12/15 15:35:37;;;;;;;1.45;1.30;;;;;;;;;;5073361;28;20036;-70
2022/12/15 15:38:05;;;;;;;5.18;3.00;;;;;;;;;;5074253;28;20036;-70
2022/12/15 15:40:31;;;;;;;3.20;2.90;;;;;;;;;;5074998;28;20032;-70
2022/12/15 15:42:57;;;;;;;2.65;2.22;;;;;;;;;;5073319;28;20390;-70
2022/12/15 15:45:24;;;;;;;2.55;2.03;;;;;;;;;;5081125;28;20039;-70
2022/12/15 15:47:51;;;;;;;2.17;1.98;;;;;;;;;;5096357;28;20035;-70
2022/12/15 15:50:27;;;;;;;2.80;2.03;;;;;;;;;;5094910;28;20379;-70
2022/12/15 15:52:53;;;;;;;3.90;2.60;;;;;;;;;;5093971;28;20040;-71
2022/12/15 15:55:24;;;;;;;2.97;2.50;;;;;;;;;;5099329;28;20122;-70
2022/12/15 15:57:50;;;;;;;6.38;4.60;;;;;;;;;;5114843;28;20027;-69
2022/12/15 16:00:18;;;;;;;7.55;4.60;;;;;;;;;;5097549;28;20060;-70
2022/12/15 16:02:44;;;;;;;4.05;3.13;;;;;;;;;;5094168;28;20040;-70
2022/12/15 16:05:10;;;;;;;4.85;3.50;;;;;;;;;;5097328;28;20044;-70
2022/12/15 16:07:37;;;;;;;10.65;6.63;;;;;;;;;;5094232;28;20071;-69
2022/12/15 16:10:03;;;;;;;7.40;4.53;;;;;;;;;;5098965;28;20149;-70
2022/12/15 16:12:34;;;;;;;6.22;4.20;;;;;;;;;;5093133;28;20039;-70
2022/12/15 16:15:00;;;;;;;;;;;;;;;;;;5074690;28;20040;-69
2022/12/15 16:17:26;;;;;;;8.40;6.05;;;;;;;;;;5075064;28;19965;-69
2022/12/15 16:19:55;;;;;;;13.48;8.27;;;;;;;;;;5094552;28;20047;-70
2022/12/15 16:22:22;;;;;;;11.75;8.45;;;;;;;;;;5110721;28;20066;-69
2022/12/15 16:24:48;;;;;;;17.67;11.70;;;;;;;;;;5090326;28;20094;-70
2022/12/15 16:27:14;;;;;;;22.50;15.07;;;;;;;;;;5108074;28;20066;-70
2022/12/15 16:29:41;;;;;;;22.55;15.98;;;;;;;;;;5092368;28;20036;-70
2022/12/15 16:32:12;;;;;;;8.32;6.72;;;;;;;;;;5073206;28;20041;-70
2022/12/15 16:34:38;;;;;;;5.60;4.60;;;;;;;;;;5082981;28;20475;-70
2022/12/15 16:37:04;;;;;;;3.50;2.70;;;;;;;;;;5083157;28;20040;-70
2022/12/15 16:39:34;;;;;;;7.50;3.35;;;;;;;;;;5084520;28;20040;-70
2022/12/15 16:42:00;;;;;;;5.37;4.20;;;;;;;;;;5113236;28;20046;-70
2022/12/15 16:44:28;;;;;;;5.88;4.35;;;;;;;;;;5100332;28;20040;-70
2022/12/15 16:46:54;;;;;;;5.90;4.50;;;;;;;;;;5105527;28;20096;-70
2022/12/15 16:49:20;;;;;;;8.40;4.60;;;;;;;;;;5106834;28;20027;-70
2022/12/15 16:51:48;;;;;;;6.32;4.82;;;;;;;;;;5092420;28;20068;-70
2022/12/15 16:54:19;;;;;;;8.10;5.20;;;;;;;;;;5092820;28;20378;-70
2022/12/15 16:56:45;;;;;;;6.57;4.50;;;;;;;;;;5093613;28;20043;-70
2022/12/15 16:59:16;;;;;;;4.13;3.47;;;;;;;;;;5089754;28;20028;-70
2022/12/15 17:01:42;;;;;;;9.85;4.95;;;;;;;;;;5074481;28;20053;-70
2022/12/15 17:04:09;;;;;;;13.57;7.70;;;;;;;;;;5074504;28;20032;-70
2022/12/15 17:06:35;;;;;;;11.38;7.72;;;;;;;;;;5074958;28;20049;-70
2022/12/15 17:09:01;;;;;;;20.92;14.00;;;;;;;;;;5074146;28;20039;-70
2022/12/15 17:11:28;;;;;;;17.95;11.55;;;;;;;;;;5082064;28;20036;-70
2022/12/15 17:13:59;;;;;;;14.13;10.25;;;;;;;;;;5101841;28;20115;-71